Orca Z — SV7711 — position and weather

sailwx.info

Track history (hours):
 
Tides and Currents Weather Stations Pressure Air Temp Water Temp Dewpoint Dewpoint Depression Visibility Wind Speed Wind Dir Waves Ship Positions

Orca Z

Last reported at 2017-Nov-14 05:38 UTC. Time now 2017-Nov-20 02:14 UTC.
Position N 37°57' E 023°36'.

Length 34 m; draft 4 m.

Type: Tug. MMSI: 241516000.

Date/timePositionNaut miles runAvg speedWind from/ knotsBaromVisibWave heightAir tempDewpointWater temp
2017-Nov-14 05:38N 37°57' E 023°36'0 0.0
2017-Nov-14 05:31N 37°57' E 023°36'0 0.0
2017-Nov-14 05:00N 37°57' E 023°36'0 0.0
2017-Nov-14 04:30N 37°57' E 023°36'0 0.0
2017-Nov-14 04:00N 37°57' E 023°36'0 0.0
2017-Nov-13 02:00N 37°57' E 023°36'0 0.0
2017-Nov-12 14:43N 37°57' E 023°36'0 0.0
2017-Nov-12 14:30N 37°57' E 023°36'0 0.0
2017-Nov-12 14:01N 37°57' E 023°36'3 7.0
2017-Nov-12 13:30N 37°59' E 023°33'3 6.5
2017-Nov-12 13:00N 38°01' E 023°36'1 2.4
2017-Nov-12 12:30N 38°01' E 023°34'1 1.8
2017-Nov-12 12:00N 38°01' E 023°35'0 0.4
2017-Nov-12 11:30N 38°01' E 023°35'4 8.5
2017-Nov-12 11:00N 37°58' E 023°33'3 5.7
2017-Nov-12 10:30N 37°58' E 023°36'1 1.2
2017-Nov-12 10:00N 37°57' E 023°36'0 0.0
2017-Nov-12 07:29N 37°57' E 023°36'0 0.0
2017-Nov-12 07:00N 37°57' E 023°36'0 0.0
2017-Nov-12 06:30N 37°57' E 023°36'0 0.0
2017-Nov-12 06:00N 37°57' E 023°36'0 0.0
2017-Nov-12 05:30N 37°57' E 023°36'0 0.0
2017-Nov-12 05:00N 37°57' E 023°36'0 0.0
2017-Nov-12 04:30N 37°57' E 023°36'0 0.0
2017-Nov-11 21:36N 37°57' E 023°36'0 0.0
2017-Nov-11 21:30N 37°57' E 023°36'0 0.0
2017-Nov-11 21:00N 37°57' E 023°36'0 0.0
2017-Nov-11 20:30N 37°57' E 023°36'0 0.0
2017-Nov-11 20:00N 37°57' E 023°36'0 0.0
2017-Nov-11 19:30N 37°57' E 023°36'0 0.0
2017-Nov-11 08:40N 37°57' E 023°36'0 0.0
2017-Nov-11 08:30N 37°57' E 023°36'0 0.0
2017-Nov-11 08:00N 37°57' E 023°36'0 0.0
2017-Nov-11 07:30N 37°57' E 023°36'0 0.0
2017-Nov-11 07:00N 37°57' E 023°36'0 0.0
2017-Nov-11 06:30N 37°57' E 023°36'0 0.0
2017-Nov-11 06:00N 37°57' E 023°36'0 0.0
2017-Nov-11 05:30N 37°57' E 023°36'0 0.0
2017-Nov-11 05:01N 37°57' E 023°36'0 0.0
2017-Nov-11 04:30N 37°57' E 023°36'0 0.0
2017-Nov-09 12:36N 37°57' E 023°36'0 0.1
2017-Nov-09 12:30N 37°57' E 023°36'0 0.0
2017-Nov-09 12:00N 37°57' E 023°36'0 0.1
2017-Nov-09 11:30N 37°57' E 023°36'0 0.0
2017-Nov-09 11:00N 37°57' E 023°36'0 0.0
2017-Nov-09 10:30N 37°57' E 023°36'0 0.0
2017-Nov-09 10:00N 37°57' E 023°36'0 0.0
2017-Nov-09 09:30N 37°57' E 023°36'0 0.0
2017-Nov-09 09:00N 37°57' E 023°36'0 0.0
2017-Nov-09 08:30N 37°57' E 023°36'0 0.0
2017-Nov-09 08:00N 37°57' E 023°36'0 0.0
2017-Nov-09 07:30N 37°57' E 023°36'0 0.0
2017-Nov-09 07:00N 37°57' E 023°36'0 0.0
2017-Nov-09 06:30N 37°57' E 023°36'0 0.0
2017-Nov-09 06:00N 37°57' E 023°36'0 0.0
2017-Nov-09 05:30N 37°57' E 023°36'0 0.0
2017-Nov-09 05:00N 37°57' E 023°36'0 0.0
2017-Nov-09 04:30N 37°57' E 023°36'0 0.0
2017-Nov-09 04:00N 37°57' E 023°36'0 0.0
2017-Nov-08 12:12N 37°57' E 023°36'0 0.0
2017-Nov-08 12:01N 37°57' E 023°36'0 0.0
2017-Nov-08 11:30N 37°57' E 023°36'0 0.0
2017-Nov-08 11:01N 37°57' E 023°36'0 0.5
2017-Nov-08 10:30N 37°57' E 023°36'0 0.3
2017-Nov-08 10:01N 37°57' E 023°36'0 0.1
2017-Nov-08 09:31N 37°57' E 023°36'0 0.7
2017-Nov-08 09:01N 37°57' E 023°36'0 0.0
2017-Nov-08 08:31N 37°57' E 023°36'0 0.0
2017-Nov-08 08:00N 37°57' E 023°36'0 0.0
2017-Nov-08 07:31N 37°57' E 023°36'0 0.0
2017-Nov-08 07:01N 37°57' E 023°36'0 0.0
2017-Nov-08 06:30N 37°57' E 023°36'0 0.0
2017-Nov-08 06:00N 37°57' E 023°36'0 0.5
2017-Nov-08 05:30N 37°57' E 023°36'1 1.2
2017-Nov-08 05:00N 37°57' E 023°36'1 1.1
2017-Nov-08 04:30N 37°57' E 023°36'0 0.0
2017-Nov-08 04:01N 37°57' E 023°36'0 0.0
2017-Nov-07 12:42N 37°57' E 023°36'0 0.0
2017-Nov-07 12:30N 37°57' E 023°36'0 0.0
2017-Nov-07 12:00N 37°57' E 023°36'0 0.7
2017-Nov-07 11:31N 37°57' E 023°36'0 0.0
2017-Nov-07 11:00N 37°57' E 023°36'0 0.0
2017-Nov-07 10:31N 37°57' E 023°36'0 0.0
2017-Nov-07 10:01N 37°57' E 023°36'0 0.0
2017-Nov-07 09:30N 37°57' E 023°36'1 1.8
2017-Nov-07 09:01N 37°57' E 023°35'2 4.8
2017-Nov-07 08:30N 37°59' E 023°33'1 2.2
2017-Nov-07 08:00N 37°58' E 023°33'3 5.8
2017-Nov-07 07:31N 37°57' E 023°36'0 0.0
2017-Nov-07 07:00N 37°57' E 023°36'0 0.0
2017-Nov-07 06:30N 37°57' E 023°36'0 0.0
2017-Nov-07 06:00N 37°57' E 023°36'0 0.0
2017-Nov-07 05:30N 37°57' E 023°36'0 0.0
2017-Nov-07 05:01N 37°57' E 023°36'0 0.0
2017-Nov-07 04:31N 37°57' E 023°36'0 0.0
2017-Nov-07 04:00N 37°57' E 023°36'0 0.0
2017-Nov-05 11:14N 37°57' E 023°36'0 0.0
2017-Nov-05 11:00N 37°57' E 023°36'0 0.0
2017-Nov-05 10:31N 37°57' E 023°36'0 0.0
2017-Nov-05 10:00N 37°57' E 023°36'0 0.0
2017-Nov-05 09:30N 37°57' E 023°36'0 0.0
2017-Nov-05 09:00N 37°57' E 023°36'0 0.0
2017-Nov-05 08:30N 37°57' E 023°36'0 0.0
2017-Nov-05 08:00N 37°57' E 023°36'0 0.0
2017-Nov-05 07:30N 37°57' E 023°36'0 0.0
2017-Nov-05 07:01N 37°57' E 023°36'0 0.0
2017-Nov-05 06:30N 37°57' E 023°36'1 1.7
2017-Nov-05 06:01N 37°56' E 023°37'1 1.8
2017-Nov-05 05:30N 37°56' E 023°38'0 0.0
2017-Nov-05 05:01N 37°56' E 023°38'1 2.2
2017-Nov-05 04:30N 37°56' E 023°37'1 1.7
2017-Nov-05 04:01N 37°57' E 023°36'0 0.0
2017-Nov-04 15:44N 37°57' E 023°36'0 0.0
2017-Nov-04 15:30N 37°57' E 023°36'3 6.0
2017-Nov-04 15:00N 37°58' E 023°33'4 7.9
2017-Nov-04 14:29N 38°01' E 023°36'0 0.0
2017-Nov-04 14:00N 38°01' E 023°36'1 1.6
2017-Nov-04 13:30N 38°01' E 023°35'2 3.2
2017-Nov-04 12:51N 38°02' E 023°32'0 0.0
2017-Nov-04 12:28N 38°02' E 023°32'0 0.0
2017-Nov-04 12:00N 38°02' E 023°32'0 0.0
2017-Nov-04 11:30N 38°02' E 023°32'0 0.0
2017-Nov-04 11:00N 38°02' E 023°32'0 0.0
2017-Nov-04 10:30N 38°02' E 023°32'1 1.1
2017-Nov-04 10:00N 38°02' E 023°32'1 2.0
2017-Nov-04 09:31N 38°01' E 023°32'1 1.3
2017-Nov-04 09:00N 38°02' E 023°32'0 0.1
2017-Nov-04 08:30N 38°02' E 023°32'0 0.0
2017-Nov-04 08:00N 38°02' E 023°32'1 2.4
2017-Nov-04 07:30N 38°02' E 023°31'1 2.5
2017-Nov-04 07:01N 38°01' E 023°31'1 1.5
2017-Nov-04 06:30N 38°01' E 023°31'2 4.8
2017-Nov-04 06:00N 38°00' E 023°33'  
Track history (hours):
 
Tides and Currents Weather Stations Pressure Air Temp Water Temp Dewpoint Dewpoint Depression Visibility Wind Speed Wind Dir Waves Ship Positions

Orca Z

Last reported at 2017-Nov-14 05:38 UTC. Time now 2017-Nov-20 02:14 UTC.
Position N 37°57' E 023°36'.

Length 34 m; draft 4 m.

Type: Tug. MMSI: 241516000.

Date/timePositionNaut miles runAvg speedWind from/ knotsBaromVisibWave heightAir tempDewpointWater temp
2017-Nov-14 05:38N 37°57' E 023°36'0 0.0
2017-Nov-14 05:31N 37°57' E 023°36'0 0.0
2017-Nov-14 05:00N 37°57' E 023°36'0 0.0
2017-Nov-14 04:30N 37°57' E 023°36'0 0.0
2017-Nov-14 04:00N 37°57' E 023°36'0 0.0
2017-Nov-13 02:00N 37°57' E 023°36'0 0.0
2017-Nov-12 14:43N 37°57' E 023°36'0 0.0
2017-Nov-12 14:30N 37°57' E 023°36'0 0.0
2017-Nov-12 14:01N 37°57' E 023°36'3 7.0
2017-Nov-12 13:30N 37°59' E 023°33'3 6.5
2017-Nov-12 13:00N 38°01' E 023°36'1 2.4
2017-Nov-12 12:30N 38°01' E 023°34'1 1.8
2017-Nov-12 12:00N 38°01' E 023°35'0 0.4
2017-Nov-12 11:30N 38°01' E 023°35'4 8.5
2017-Nov-12 11:00N 37°58' E 023°33'3 5.7
2017-Nov-12 10:30N 37°58' E 023°36'1 1.2
2017-Nov-12 10:00N 37°57' E 023°36'0 0.0
2017-Nov-12 07:29N 37°57' E 023°36'0 0.0
2017-Nov-12 07:00N 37°57' E 023°36'0 0.0
2017-Nov-12 06:30N 37°57' E 023°36'0 0.0
2017-Nov-12 06:00N 37°57' E 023°36'0 0.0
2017-Nov-12 05:30N 37°57' E 023°36'0 0.0
2017-Nov-12 05:00N 37°57' E 023°36'0 0.0
2017-Nov-12 04:30N 37°57' E 023°36'0 0.0
2017-Nov-11 21:36N 37°57' E 023°36'0 0.0
2017-Nov-11 21:30N 37°57' E 023°36'0 0.0
2017-Nov-11 21:00N 37°57' E 023°36'0 0.0
2017-Nov-11 20:30N 37°57' E 023°36'0 0.0
2017-Nov-11 20:00N 37°57' E 023°36'0 0.0
2017-Nov-11 19:30N 37°57' E 023°36'0 0.0
2017-Nov-11 08:40N 37°57' E 023°36'0 0.0
2017-Nov-11 08:30N 37°57' E 023°36'0 0.0
2017-Nov-11 08:00N 37°57' E 023°36'0 0.0
2017-Nov-11 07:30N 37°57' E 023°36'0 0.0
2017-Nov-11 07:00N 37°57' E 023°36'0 0.0
2017-Nov-11 06:30N 37°57' E 023°36'0 0.0
2017-Nov-11 06:00N 37°57' E 023°36'0 0.0
2017-Nov-11 05:30N 37°57' E 023°36'0 0.0
2017-Nov-11 05:01N 37°57' E 023°36'0 0.0
2017-Nov-11 04:30N 37°57' E 023°36'0 0.0
2017-Nov-09 12:36N 37°57' E 023°36'0 0.1
2017-Nov-09 12:30N 37°57' E 023°36'0 0.0
2017-Nov-09 12:00N 37°57' E 023°36'0 0.1
2017-Nov-09 11:30N 37°57' E 023°36'0 0.0
2017-Nov-09 11:00N 37°57' E 023°36'0 0.0
2017-Nov-09 10:30N 37°57' E 023°36'0 0.0
2017-Nov-09 10:00N 37°57' E 023°36'0 0.0
2017-Nov-09 09:30N 37°57' E 023°36'0 0.0
2017-Nov-09 09:00N 37°57' E 023°36'0 0.0
2017-Nov-09 08:30N 37°57' E 023°36'0 0.0
2017-Nov-09 08:00N 37°57' E 023°36'0 0.0
2017-Nov-09 07:30N 37°57' E 023°36'0 0.0
2017-Nov-09 07:00N 37°57' E 023°36'0 0.0
2017-Nov-09 06:30N 37°57' E 023°36'0 0.0
2017-Nov-09 06:00N 37°57' E 023°36'0 0.0
2017-Nov-09 05:30N 37°57' E 023°36'0 0.0
2017-Nov-09 05:00N 37°57' E 023°36'0 0.0
2017-Nov-09 04:30N 37°57' E 023°36'0 0.0
2017-Nov-09 04:00N 37°57' E 023°36'0 0.0
2017-Nov-08 12:12N 37°57' E 023°36'0 0.0
2017-Nov-08 12:01N 37°57' E 023°36'0 0.0
2017-Nov-08 11:30N 37°57' E 023°36'0 0.0
2017-Nov-08 11:01N 37°57' E 023°36'0 0.5
2017-Nov-08 10:30N 37°57' E 023°36'0 0.3
2017-Nov-08 10:01N 37°57' E 023°36'0 0.1
2017-Nov-08 09:31N 37°57' E 023°36'0 0.7
2017-Nov-08 09:01N 37°57' E 023°36'0 0.0
2017-Nov-08 08:31N 37°57' E 023°36'0 0.0
2017-Nov-08 08:00N 37°57' E 023°36'0 0.0
2017-Nov-08 07:31N 37°57' E 023°36'0 0.0
2017-Nov-08 07:01N 37°57' E 023°36'0 0.0
2017-Nov-08 06:30N 37°57' E 023°36'0 0.0
2017-Nov-08 06:00N 37°57' E 023°36'0 0.5
2017-Nov-08 05:30N 37°57' E 023°36'1 1.2
2017-Nov-08 05:00N 37°57' E 023°36'1 1.1
2017-Nov-08 04:30N 37°57' E 023°36'0 0.0
2017-Nov-08 04:01N 37°57' E 023°36'0 0.0
2017-Nov-07 12:42N 37°57' E 023°36'0 0.0
2017-Nov-07 12:30N 37°57' E 023°36'0 0.0
2017-Nov-07 12:00N 37°57' E 023°36'0 0.7
2017-Nov-07 11:31N 37°57' E 023°36'0 0.0
2017-Nov-07 11:00N 37°57' E 023°36'0 0.0
2017-Nov-07 10:31N 37°57' E 023°36'0 0.0
2017-Nov-07 10:01N 37°57' E 023°36'0 0.0
2017-Nov-07 09:30N 37°57' E 023°36'1 1.8
2017-Nov-07 09:01N 37°57' E 023°35'2 4.8
2017-Nov-07 08:30N 37°59' E 023°33'1 2.2
2017-Nov-07 08:00N 37°58' E 023°33'3 5.8
2017-Nov-07 07:31N 37°57' E 023°36'0 0.0
2017-Nov-07 07:00N 37°57' E 023°36'0 0.0
2017-Nov-07 06:30N 37°57' E 023°36'0 0.0
2017-Nov-07 06:00N 37°57' E 023°36'0 0.0
2017-Nov-07 05:30N 37°57' E 023°36'0 0.0
2017-Nov-07 05:01N 37°57' E 023°36'0 0.0
2017-Nov-07 04:31N 37°57' E 023°36'0 0.0
2017-Nov-07 04:00N 37°57' E 023°36'0 0.0
2017-Nov-05 11:14N 37°57' E 023°36'0 0.0
2017-Nov-05 11:00N 37°57' E 023°36'0 0.0
2017-Nov-05 10:31N 37°57' E 023°36'0 0.0
2017-Nov-05 10:00N 37°57' E 023°36'0 0.0
2017-Nov-05 09:30N 37°57' E 023°36'0 0.0
2017-Nov-05 09:00N 37°57' E 023°36'0 0.0
2017-Nov-05 08:30N 37°57' E 023°36'0 0.0
2017-Nov-05 08:00N 37°57' E 023°36'0 0.0
2017-Nov-05 07:30N 37°57' E 023°36'0 0.0
2017-Nov-05 07:01N 37°57' E 023°36'0 0.0
2017-Nov-05 06:30N 37°57' E 023°36'1 1.7
2017-Nov-05 06:01N 37°56' E 023°37'1 1.8
2017-Nov-05 05:30N 37°56' E 023°38'0 0.0
2017-Nov-05 05:01N 37°56' E 023°38'1 2.2
2017-Nov-05 04:30N 37°56' E 023°37'1 1.7
2017-Nov-05 04:01N 37°57' E 023°36'0 0.0
2017-Nov-04 15:44N 37°57' E 023°36'0 0.0
2017-Nov-04 15:30N 37°57' E 023°36'3 6.0
2017-Nov-04 15:00N 37°58' E 023°33'4 7.9
2017-Nov-04 14:29N 38°01' E 023°36'0 0.0
2017-Nov-04 14:00N 38°01' E 023°36'1 1.6
2017-Nov-04 13:30N 38°01' E 023°35'2 3.2
2017-Nov-04 12:51N 38°02' E 023°32'0 0.0
2017-Nov-04 12:28N 38°02' E 023°32'0 0.0
2017-Nov-04 12:00N 38°02' E 023°32'0 0.0
2017-Nov-04 11:30N 38°02' E 023°32'0 0.0
2017-Nov-04 11:00N 38°02' E 023°32'0 0.0
2017-Nov-04 10:30N 38°02' E 023°32'1 1.1
2017-Nov-04 10:00N 38°02' E 023°32'1 2.0
2017-Nov-04 09:31N 38°01' E 023°32'1 1.3
2017-Nov-04 09:00N 38°02' E 023°32'0 0.1
2017-Nov-04 08:30N 38°02' E 023°32'0 0.0
2017-Nov-04 08:00N 38°02' E 023°32'1 2.4
2017-Nov-04 07:30N 38°02' E 023°31'1 2.5
2017-Nov-04 07:01N 38°01' E 023°31'1 1.5
2017-Nov-04 06:30N 38°01' E 023°31'2 4.8
2017-Nov-04 06:00N 38°00' E 023°33'  

Dump ship's entire track history